Madison, NJ (07940)

11:04 PM EDT on August 23, 2016 (GMT -0400)
Madison Community Pool | | Change Station

Elev 207 ft 40.76 °N, 74.40 °W | Updated 3 minutes ago

Clear
Clear
65.5 °F
Feels Like 65.5 °F
N
0.0
Wind Variable Wind from SE

Today
High -- | Low -- °F
--% Chance of Precip.
Yesterday
High -- | Low -- °F
Precip. -- in
Pressure 30.27 in
Visibility 10.0 miles
Clouds Clear
Dew Point 65 °F
Humidity 98%
Rainfall 0.00 in
Snow Depth Not available.
6:16 AM 7:43 PM
Waning Gibbous, 62% visible
METAR KMMU 240255Z AUTO 00000KT 10SM CLR 15/15 A3027 RMK AO2
Pressure 30.27 in
Visibility 10.0 miles
Clouds Clear
Dew Point 65 °F
Humidity 98%
Rainfall 0.00 in
Snow Depth Not available.
6:16 AM 7:43 PM
Waning Gibbous, 62% visible
METAR KMMU 240255Z AUTO 00000KT 10SM CLR 15/15 A3027 RMK AO2

10-Day Weather Forecast

Almanac

Astronomy

Aug. 23, 2016 Rise Set
Actual Time
Civil Twilight
Nautical Twilight
Astronomical Twilight
Moon
Length of Visible Light
Length of Day
Tomorrow will be .
, % of the Moon is Illuminated

Today's Extremes

State Highs State Lows

Community

WunderPhotos

Upload Photos

1,934,538 photos uploaded!

WunderBlog® & News

Nearby

Air Quality

  Air Quality AQ Index Pollutant
Not available.

Snow Depth

Station Depth Elevation

Earthquake Activity

City Distance Mag. Time & Date
Minimum magnitude displayed is 2.5.

Coastal Water Temperatures

Place Temperature

Stations

Nearby Weather Stations

Station Location Temp. Windchill Dew Point Humidity Wind Precip. Elev Updated Type
                   

Watches & Warnings

There are currently no watches in effect.